sensor_id;sensor_type;location;lat;lon;timestamp;P1;durP1;ratioP1;P2;durP2;ratioP2
38053;SDS011;23859;50.672;7.164;2023-05-14T00:01:46;18.70;;;12.07;;
38053;SDS011;23859;50.672;7.164;2023-05-14T00:04:13;13.98;;;11.70;;
38053;SDS011;23859;50.672;7.164;2023-05-14T00:06:39;18.38;;;11.45;;
38053;SDS011;23859;50.672;7.164;2023-05-14T00:09:05;17.10;;;11.73;;
38053;SDS011;23859;50.672;7.164;2023-05-14T00:11:31;15.55;;;11.15;;
38053;SDS011;23859;50.672;7.164;2023-05-14T00:13:57;13.77;;;11.02;;
38053;SDS011;23859;50.672;7.164;2023-05-14T00:16:23;15.82;;;11.52;;
38053;SDS011;23859;50.672;7.164;2023-05-14T00:18:49;15.70;;;11.98;;
38053;SDS011;23859;50.672;7.164;2023-05-14T00:21:15;16.52;;;11.73;;
38053;SDS011;23859;50.672;7.164;2023-05-14T00:23:41;14.02;;;10.60;;
38053;SDS011;23859;50.672;7.164;2023-05-14T00:26:07;19.10;;;11.63;;
38053;SDS011;23859;50.672;7.164;2023-05-14T00:28:33;18.48;;;11.43;;
38053;SDS011;23859;50.672;7.164;2023-05-14T00:30:59;16.02;;;11.82;;
38053;SDS011;23859;50.672;7.164;2023-05-14T00:33:25;16.25;;;11.05;;
38053;SDS011;23859;50.672;7.164;2023-05-14T00:35:51;20.23;;;13.98;;
38053;SDS011;23859;50.672;7.164;2023-05-14T00:38:17;19.73;;;12.35;;
38053;SDS011;23859;50.672;7.164;2023-05-14T00:40:44;17.02;;;12.75;;
38053;SDS011;23859;50.672;7.164;2023-05-14T00:43:18;17.70;;;12.27;;
38053;SDS011;23859;50.672;7.164;2023-05-14T00:45:46;16.05;;;11.98;;
38053;SDS011;23859;50.672;7.164;2023-05-14T00:48:14;17.33;;;12.25;;
38053;SDS011;23859;50.672;7.164;2023-05-14T00:50:41;20.38;;;12.52;;
38053;SDS011;23859;50.672;7.164;2023-05-14T00:53:07;19.00;;;12.13;;
38053;SDS011;23859;50.672;7.164;2023-05-14T00:55:38;18.08;;;11.40;;
38053;SDS011;23859;50.672;7.164;2023-05-14T00:58:10;17.25;;;11.38;;
38053;SDS011;23859;50.672;7.164;2023-05-14T01:00:38;18.95;;;12.07;;
38053;SDS011;23859;50.672;7.164;2023-05-14T01:03:05;15.57;;;11.93;;
38053;SDS011;23859;50.672;7.164;2023-05-14T01:05:35;17.35;;;11.43;;
38053;SDS011;23859;50.672;7.164;2023-05-14T01:08:24;13.48;;;10.70;;
38053;SDS011;23859;50.672;7.164;2023-05-14T01:17:07;18.27;;;12.05;;
38053;SDS011;23859;50.672;7.164;2023-05-14T01:19:41;16.67;;;12.60;;
38053;SDS011;23859;50.672;7.164;2023-05-14T01:22:09;19.67;;;11.95;;
38053;SDS011;23859;50.672;7.164;2023-05-14T01:24:36;15.75;;;12.02;;
38053;SDS011;23859;50.672;7.164;2023-05-14T01:27:05;16.80;;;12.45;;
38053;SDS011;23859;50.672;7.164;2023-05-14T01:29:50;14.82;;;11.65;;
38053;SDS011;23859;50.672;7.164;2023-05-14T01:32:32;16.83;;;11.48;;
38053;SDS011;23859;50.672;7.164;2023-05-14T01:34:59;16.25;;;11.68;;
38053;SDS011;23859;50.672;7.164;2023-05-14T01:37:26;16.95;;;12.00;;
38053;SDS011;23859;50.672;7.164;2023-05-14T01:39:55;19.25;;;13.82;;
38053;SDS011;23859;50.672;7.164;2023-05-14T01:42:21;27.02;;;13.65;;
38053;SDS011;23859;50.672;7.164;2023-05-14T01:44:48;19.83;;;14.00;;
38053;SDS011;23859;50.672;7.164;2023-05-14T01:47:14;21.50;;;14.43;;
38053;SDS011;23859;50.672;7.164;2023-05-14T01:49:40;24.77;;;15.70;;
38053;SDS011;23859;50.672;7.164;2023-05-14T01:52:06;39.70;;;28.10;;
38053;SDS011;23859;50.672;7.164;2023-05-14T01:54:32;46.10;;;32.15;;
38053;SDS011;23859;50.672;7.164;2023-05-14T01:56:58;47.30;;;34.20;;
38053;SDS011;23859;50.672;7.164;2023-05-14T01:59:24;54.00;;;35.88;;
38053;SDS011;23859;50.672;7.164;2023-05-14T02:01:50;50.08;;;35.28;;
38053;SDS011;23859;50.672;7.164;2023-05-14T02:04:17;54.08;;;36.53;;
38053;SDS011;23859;50.672;7.164;2023-05-14T02:06:44;48.53;;;35.15;;
38053;SDS011;23859;50.672;7.164;2023-05-14T02:09:10;34.33;;;23.55;;
38053;SDS011;23859;50.672;7.164;2023-05-14T02:11:36;38.72;;;23.90;;
38053;SDS011;23859;50.672;7.164;2023-05-14T02:14:02;39.17;;;23.65;;
38053;SDS011;23859;50.672;7.164;2023-05-14T02:16:28;35.65;;;22.38;;
38053;SDS011;23859;50.672;7.164;2023-05-14T02:18:55;48.90;;;19.73;;
38053;SDS011;23859;50.672;7.164;2023-05-14T02:21:21;40.80;;;18.30;;
38053;SDS011;23859;50.672;7.164;2023-05-14T02:23:47;30.23;;;19.30;;
38053;SDS011;23859;50.672;7.164;2023-05-14T02:26:14;35.20;;;18.05;;
38053;SDS011;23859;50.672;7.164;2023-05-14T02:28:40;39.65;;;18.77;;
38053;SDS011;23859;50.672;7.164;2023-05-14T02:31:06;41.90;;;18.15;;
38053;SDS011;23859;50.672;7.164;2023-05-14T02:33:32;48.58;;;21.02;;
38053;SDS011;23859;50.672;7.164;2023-05-14T02:35:58;35.13;;;19.40;;
38053;SDS011;23859;50.672;7.164;2023-05-14T02:38:24;28.88;;;17.85;;
38053;SDS011;23859;50.672;7.164;2023-05-14T02:40:51;28.95;;;17.40;;
38053;SDS011;23859;50.672;7.164;2023-05-14T02:43:17;30.33;;;17.88;;
38053;SDS011;23859;50.672;7.164;2023-05-14T02:45:43;30.20;;;18.45;;
38053;SDS011;23859;50.672;7.164;2023-05-14T02:48:09;38.08;;;18.23;;
38053;SDS011;23859;50.672;7.164;2023-05-14T02:50:35;28.25;;;17.20;;
38053;SDS011;23859;50.672;7.164;2023-05-14T02:53:01;27.50;;;17.33;;
38053;SDS011;23859;50.672;7.164;2023-05-14T02:55:27;31.73;;;18.27;;
38053;SDS011;23859;50.672;7.164;2023-05-14T02:57:53;25.42;;;17.17;;
38053;SDS011;23859;50.672;7.164;2023-05-14T03:00:20;23.10;;;15.63;;
38053;SDS011;23859;50.672;7.164;2023-05-14T03:02:46;35.55;;;17.63;;
38053;SDS011;23859;50.672;7.164;2023-05-14T03:05:12;32.30;;;16.30;;
38053;SDS011;23859;50.672;7.164;2023-05-14T03:07:38;70.38;;;18.50;;
38053;SDS011;23859;50.672;7.164;2023-05-14T03:10:05;32.58;;;17.50;;
38053;SDS011;23859;50.672;7.164;2023-05-14T03:12:31;73.75;;;21.55;;
38053;SDS011;23859;50.672;7.164;2023-05-14T03:14:57;94.30;;;23.60;;
38053;SDS011;23859;50.672;7.164;2023-05-14T03:17:23;45.55;;;21.65;;
38053;SDS011;23859;50.672;7.164;2023-05-14T03:19:49;51.90;;;20.45;;
38053;SDS011;23859;50.672;7.164;2023-05-14T03:22:15;111.28;;;21.15;;
38053;SDS011;23859;50.672;7.164;2023-05-14T03:24:41;115.78;;;25.05;;
38053;SDS011;23859;50.672;7.164;2023-05-14T03:27:07;90.20;;;20.48;;
38053;SDS011;23859;50.672;7.164;2023-05-14T03:29:33;82.90;;;21.13;;
38053;SDS011;23859;50.672;7.164;2023-05-14T03:31:59;124.03;;;21.90;;
38053;SDS011;23859;50.672;7.164;2023-05-14T03:34:25;140.07;;;21.85;;
38053;SDS011;23859;50.672;7.164;2023-05-14T03:36:51;139.70;;;26.77;;
38053;SDS011;23859;50.672;7.164;2023-05-14T03:39:17;75.82;;;20.90;;
38053;SDS011;23859;50.672;7.164;2023-05-14T03:41:46;87.88;;;22.85;;
38053;SDS011;23859;50.672;7.164;2023-05-14T03:44:12;86.63;;;18.90;;
38053;SDS011;23859;50.672;7.164;2023-05-14T03:46:39;40.38;;;18.10;;
38053;SDS011;23859;50.672;7.164;2023-05-14T03:49:05;36.72;;;16.67;;
38053;SDS011;23859;50.672;7.164;2023-05-14T03:51:32;30.10;;;16.80;;
38053;SDS011;23859;50.672;7.164;2023-05-14T03:53:58;28.60;;;17.38;;
38053;SDS011;23859;50.672;7.164;2023-05-14T03:56:24;34.15;;;18.75;;
38053;SDS011;23859;50.672;7.164;2023-05-14T03:58:51;31.88;;;18.52;;
38053;SDS011;23859;50.672;7.164;2023-05-14T04:01:17;26.98;;;17.33;;
38053;SDS011;23859;50.672;7.164;2023-05-14T04:03:43;29.33;;;17.75;;
38053;SDS011;23859;50.672;7.164;2023-05-14T04:06:09;28.00;;;17.25;;
38053;SDS011;23859;50.672;7.164;2023-05-14T04:08:35;28.50;;;18.02;;
38053;SDS011;23859;50.672;7.164;2023-05-14T04:11:01;82.63;;;17.77;;
38053;SDS011;23859;50.672;7.164;2023-05-14T04:13:28;70.57;;;18.25;;
38053;SDS011;23859;50.672;7.164;2023-05-14T04:15:54;45.15;;;17.63;;
38053;SDS011;23859;50.672;7.164;2023-05-14T04:18:20;28.80;;;16.85;;
38053;SDS011;23859;50.672;7.164;2023-05-14T04:20:47;86.70;;;18.70;;
38053;SDS011;23859;50.672;7.164;2023-05-14T04:23:13;36.75;;;16.25;;
38053;SDS011;23859;50.672;7.164;2023-05-14T04:25:39;104.00;;;25.10;;
38053;SDS011;23859;50.672;7.164;2023-05-14T04:28:05;72.18;;;16.95;;
38053;SDS011;23859;50.672;7.164;2023-05-14T04:30:31;103.57;;;18.38;;
38053;SDS011;23859;50.672;7.164;2023-05-14T04:32:57;47.70;;;16.10;;
38053;SDS011;23859;50.672;7.164;2023-05-14T04:35:23;110.22;;;19.02;;
38053;SDS011;23859;50.672;7.164;2023-05-14T04:37:49;101.03;;;18.85;;
38053;SDS011;23859;50.672;7.164;2023-05-14T04:40:16;38.88;;;19.20;;
38053;SDS011;23859;50.672;7.164;2023-05-14T04:42:42;71.10;;;20.83;;
38053;SDS011;23859;50.672;7.164;2023-05-14T04:45:09;39.85;;;19.10;;
38053;SDS011;23859;50.672;7.164;2023-05-14T04:47:36;51.97;;;19.15;;
38053;SDS011;23859;50.672;7.164;2023-05-14T04:50:02;38.58;;;21.55;;
38053;SDS011;23859;50.672;7.164;2023-05-14T04:52:29;39.03;;;19.60;;
38053;SDS011;23859;50.672;7.164;2023-05-14T04:54:55;66.78;;;21.52;;
38053;SDS011;23859;50.672;7.164;2023-05-14T04:57:21;102.03;;;22.20;;
38053;SDS011;23859;50.672;7.164;2023-05-14T04:59:47;56.38;;;21.25;;
38053;SDS011;23859;50.672;7.164;2023-05-14T05:02:13;53.63;;;22.48;;
38053;SDS011;23859;50.672;7.164;2023-05-14T05:04:39;44.63;;;21.23;;
38053;SDS011;23859;50.672;7.164;2023-05-14T05:07:05;38.15;;;19.40;;
38053;SDS011;23859;50.672;7.164;2023-05-14T05:09:31;38.53;;;19.13;;
38053;SDS011;23859;50.672;7.164;2023-05-14T05:11:57;36.83;;;18.77;;
38053;SDS011;23859;50.672;7.164;2023-05-14T05:14:25;32.20;;;20.00;;
38053;SDS011;23859;50.672;7.164;2023-05-14T05:16:51;32.88;;;19.30;;
38053;SDS011;23859;50.672;7.164;2023-05-14T05:19:17;30.73;;;18.35;;
38053;SDS011;23859;50.672;7.164;2023-05-14T05:21:43;26.75;;;16.80;;
38053;SDS011;23859;50.672;7.164;2023-05-14T05:24:09;30.27;;;17.00;;
38053;SDS011;23859;50.672;7.164;2023-05-14T05:26:35;37.45;;;17.65;;
38053;SDS011;23859;50.672;7.164;2023-05-14T05:29:02;34.92;;;15.88;;
38053;SDS011;23859;50.672;7.164;2023-05-14T05:31:29;35.53;;;17.13;;
38053;SDS011;23859;50.672;7.164;2023-05-14T05:33:56;24.52;;;16.05;;
38053;SDS011;23859;50.672;7.164;2023-05-14T05:36:25;27.67;;;16.52;;
38053;SDS011;23859;50.672;7.164;2023-05-14T05:38:51;36.63;;;17.27;;
38053;SDS011;23859;50.672;7.164;2023-05-14T05:41:17;38.60;;;17.10;;
38053;SDS011;23859;50.672;7.164;2023-05-14T05:43:43;29.90;;;17.90;;
38053;SDS011;23859;50.672;7.164;2023-05-14T05:46:10;27.65;;;17.25;;
38053;SDS011;23859;50.672;7.164;2023-05-14T05:48:36;30.30;;;17.15;;
38053;SDS011;23859;50.672;7.164;2023-05-14T05:51:02;25.50;;;16.25;;
38053;SDS011;23859;50.672;7.164;2023-05-14T05:53:28;23.27;;;15.35;;
38053;SDS011;23859;50.672;7.164;2023-05-14T05:55:54;27.02;;;16.27;;
38053;SDS011;23859;50.672;7.164;2023-05-14T05:58:20;21.40;;;15.07;;
38053;SDS011;23859;50.672;7.164;2023-05-14T06:00:46;28.17;;;15.82;;
38053;SDS011;23859;50.672;7.164;2023-05-14T06:03:12;24.35;;;16.38;;
38053;SDS011;23859;50.672;7.164;2023-05-14T06:05:39;25.52;;;16.10;;
38053;SDS011;23859;50.672;7.164;2023-05-14T06:08:05;24.92;;;15.70;;
38053;SDS011;23859;50.672;7.164;2023-05-14T06:10:32;24.83;;;15.55;;
38053;SDS011;23859;50.672;7.164;2023-05-14T06:12:58;29.20;;;16.90;;
38053;SDS011;23859;50.672;7.164;2023-05-14T06:15:24;26.38;;;15.63;;
38053;SDS011;23859;50.672;7.164;2023-05-14T06:17:50;25.38;;;15.20;;
38053;SDS011;23859;50.672;7.164;2023-05-14T06:20:17;22.02;;;14.85;;
38053;SDS011;23859;50.672;7.164;2023-05-14T06:22:44;21.50;;;14.27;;
38053;SDS011;23859;50.672;7.164;2023-05-14T06:25:10;20.60;;;14.52;;
38053;SDS011;23859;50.672;7.164;2023-05-14T06:27:36;20.98;;;15.43;;
38053;SDS011;23859;50.672;7.164;2023-05-14T06:30:02;18.38;;;14.32;;
38053;SDS011;23859;50.672;7.164;2023-05-14T06:32:28;20.70;;;16.00;;
38053;SDS011;23859;50.672;7.164;2023-05-14T06:34:54;19.55;;;13.98;;
38053;SDS011;23859;50.672;7.164;2023-05-14T06:37:21;21.23;;;15.65;;
38053;SDS011;23859;50.672;7.164;2023-05-14T06:39:47;29.05;;;19.77;;
38053;SDS011;23859;50.672;7.164;2023-05-14T06:42:17;24.23;;;15.68;;
38053;SDS011;23859;50.672;7.164;2023-05-14T06:44:43;27.30;;;18.98;;
38053;SDS011;23859;50.672;7.164;2023-05-14T06:47:09;23.33;;;15.80;;
38053;SDS011;23859;50.672;7.164;2023-05-14T06:49:36;29.10;;;18.75;;
38053;SDS011;23859;50.672;7.164;2023-05-14T06:52:02;24.60;;;18.80;;
38053;SDS011;23859;50.672;7.164;2023-05-14T06:54:28;29.20;;;20.33;;
38053;SDS011;23859;50.672;7.164;2023-05-14T06:56:55;29.35;;;19.00;;
38053;SDS011;23859;50.672;7.164;2023-05-14T06:59:21;25.25;;;18.42;;
38053;SDS011;23859;50.672;7.164;2023-05-14T07:01:47;21.83;;;16.73;;
38053;SDS011;23859;50.672;7.164;2023-05-14T07:04:13;23.95;;;16.83;;
38053;SDS011;23859;50.672;7.164;2023-05-14T07:06:39;21.80;;;15.15;;
38053;SDS011;23859;50.672;7.164;2023-05-14T07:09:05;23.48;;;14.57;;
38053;SDS011;23859;50.672;7.164;2023-05-14T07:11:32;19.23;;;13.57;;
38053;SDS011;23859;50.672;7.164;2023-05-14T07:13:58;18.20;;;12.65;;
38053;SDS011;23859;50.672;7.164;2023-05-14T07:16:24;16.08;;;11.75;;
38053;SDS011;23859;50.672;7.164;2023-05-14T07:18:51;15.73;;;11.38;;
38053;SDS011;23859;50.672;7.164;2023-05-14T07:21:17;15.38;;;10.50;;
38053;SDS011;23859;50.672;7.164;2023-05-14T07:23:43;13.77;;;9.75;;
38053;SDS011;23859;50.672;7.164;2023-05-14T07:26:09;10.77;;;8.95;;
38053;SDS011;23859;50.672;7.164;2023-05-14T07:28:35;9.88;;;8.88;;
38053;SDS011;23859;50.672;7.164;2023-05-14T07:31:01;12.93;;;8.30;;
38053;SDS011;23859;50.672;7.164;2023-05-14T07:33:32;10.82;;;7.30;;
38053;SDS011;23859;50.672;7.164;2023-05-14T07:35:59;8.82;;;7.28;;
38053;SDS011;23859;50.672;7.164;2023-05-14T07:38:25;9.82;;;7.50;;
38053;SDS011;23859;50.672;7.164;2023-05-14T07:40:52;10.23;;;7.57;;
38053;SDS011;23859;50.672;7.164;2023-05-14T07:43:18;9.52;;;7.85;;
38053;SDS011;23859;50.672;7.164;2023-05-14T07:45:44;7.80;;;7.00;;
38053;SDS011;23859;50.672;7.164;2023-05-14T07:48:10;9.60;;;7.03;;
38053;SDS011;23859;50.672;7.164;2023-05-14T07:50:36;9.82;;;7.63;;
38053;SDS011;23859;50.672;7.164;2023-05-14T07:53:02;9.18;;;7.28;;
38053;SDS011;23859;50.672;7.164;2023-05-14T07:55:28;8.80;;;6.95;;
38053;SDS011;23859;50.672;7.164;2023-05-14T07:57:54;7.88;;;7.07;;
38053;SDS011;23859;50.672;7.164;2023-05-14T08:00:20;9.35;;;6.85;;
38053;SDS011;23859;50.672;7.164;2023-05-14T08:02:46;8.38;;;6.60;;
38053;SDS011;23859;50.672;7.164;2023-05-14T08:05:13;10.45;;;6.53;;
38053;SDS011;23859;50.672;7.164;2023-05-14T08:07:39;12.68;;;7.25;;
38053;SDS011;23859;50.672;7.164;2023-05-14T08:10:05;12.68;;;7.90;;
38053;SDS011;23859;50.672;7.164;2023-05-14T08:12:32;9.98;;;6.95;;
38053;SDS011;23859;50.672;7.164;2023-05-14T08:14:58;11.18;;;7.32;;
38053;SDS011;23859;50.672;7.164;2023-05-14T08:17:24;11.18;;;7.55;;
38053;SDS011;23859;50.672;7.164;2023-05-14T08:19:50;14.50;;;8.48;;
38053;SDS011;23859;50.672;7.164;2023-05-14T08:22:16;8.68;;;7.10;;
38053;SDS011;23859;50.672;7.164;2023-05-14T08:24:42;11.43;;;7.68;;
38053;SDS011;23859;50.672;7.164;2023-05-14T08:27:08;10.63;;;7.32;;
38053;SDS011;23859;50.672;7.164;2023-05-14T08:29:34;11.05;;;8.13;;
38053;SDS011;23859;50.672;7.164;2023-05-14T08:32:00;9.82;;;8.35;;
38053;SDS011;23859;50.672;7.164;2023-05-14T08:34:27;11.82;;;7.57;;
38053;SDS011;23859;50.672;7.164;2023-05-14T08:36:53;11.88;;;7.90;;
38053;SDS011;23859;50.672;7.164;2023-05-14T08:39:19;9.73;;;6.82;;
38053;SDS011;23859;50.672;7.164;2023-05-14T08:41:45;10.85;;;8.50;;
38053;SDS011;23859;50.672;7.164;2023-05-14T08:44:13;11.80;;;7.53;;
38053;SDS011;23859;50.672;7.164;2023-05-14T08:46:55;9.60;;;6.77;;
38053;SDS011;23859;50.672;7.164;2023-05-14T08:52:07;7.63;;;5.93;;
38053;SDS011;23859;50.672;7.164;2023-05-14T08:54:34;7.05;;;6.03;;
38053;SDS011;23859;50.672;7.164;2023-05-14T08:57:01;9.40;;;6.30;;
38053;SDS011;23859;50.672;7.164;2023-05-14T08:59:28;10.13;;;6.13;;
38053;SDS011;23859;50.672;7.164;2023-05-14T09:01:55;10.68;;;6.53;;
38053;SDS011;23859;50.672;7.164;2023-05-14T09:04:25;7.35;;;6.38;;
38053;SDS011;23859;50.672;7.164;2023-05-14T09:06:53;8.63;;;7.13;;
38053;SDS011;23859;50.672;7.164;2023-05-14T09:09:20;8.38;;;6.50;;
38053;SDS011;23859;50.672;7.164;2023-05-14T09:11:47;17.58;;;6.68;;
38053;SDS011;23859;50.672;7.164;2023-05-14T09:14:14;6.93;;;5.47;;
38053;SDS011;23859;50.672;7.164;2023-05-14T09:16:41;9.85;;;6.85;;
38053;SDS011;23859;50.672;7.164;2023-05-14T09:19:10;77.05;;;10.63;;
38053;SDS011;23859;50.672;7.164;2023-05-14T09:21:37;18.55;;;6.07;;
38053;SDS011;23859;50.672;7.164;2023-05-14T09:24:04;44.45;;;6.82;;
38053;SDS011;23859;50.672;7.164;2023-05-14T09:26:31;9.95;;;5.50;;
38053;SDS011;23859;50.672;7.164;2023-05-14T09:28:59;8.10;;;5.55;;
38053;SDS011;23859;50.672;7.164;2023-05-14T09:31:29;9.35;;;6.00;;
38053;SDS011;23859;50.672;7.164;2023-05-14T09:33:57;9.52;;;5.95;;
38053;SDS011;23859;50.672;7.164;2023-05-14T09:36:24;7.38;;;6.10;;
38053;SDS011;23859;50.672;7.164;2023-05-14T09:38:51;7.20;;;5.45;;
38053;SDS011;23859;50.672;7.164;2023-05-14T09:41:20;9.10;;;6.70;;
38053;SDS011;23859;50.672;7.164;2023-05-14T09:43:47;8.50;;;6.60;;
38053;SDS011;23859;50.672;7.164;2023-05-14T09:46:14;8.05;;;6.75;;
38053;SDS011;23859;50.672;7.164;2023-05-14T09:48:40;8.45;;;5.70;;
38053;SDS011;23859;50.672;7.164;2023-05-14T09:51:06;7.47;;;6.00;;
38053;SDS011;23859;50.672;7.164;2023-05-14T09:53:35;7.25;;;5.75;;
38053;SDS011;23859;50.672;7.164;2023-05-14T09:56:02;7.35;;;6.38;;
38053;SDS011;23859;50.672;7.164;2023-05-14T09:58:28;42.50;;;6.93;;
38053;SDS011;23859;50.672;7.164;2023-05-14T10:00:55;7.05;;;5.32;;
38053;SDS011;23859;50.672;7.164;2023-05-14T10:03:23;6.07;;;5.35;;
38053;SDS011;23859;50.672;7.164;2023-05-14T10:05:51;12.95;;;5.65;;
38053;SDS011;23859;50.672;7.164;2023-05-14T10:08:23;112.75;;;11.43;;
38053;SDS011;23859;50.672;7.164;2023-05-14T10:10:54;6.10;;;4.85;;
38053;SDS011;23859;50.672;7.164;2023-05-14T10:13:27;7.15;;;4.65;;
38053;SDS011;23859;50.672;7.164;2023-05-14T10:16:00;6.15;;;4.47;;
38053;SDS011;23859;50.672;7.164;2023-05-14T10:18:42;6.70;;;3.80;;
38053;SDS011;23859;50.672;7.164;2023-05-14T10:21:13;3.35;;;3.05;;
38053;SDS011;23859;50.672;7.164;2023-05-14T10:23:42;3.85;;;3.10;;
38053;SDS011;23859;50.672;7.164;2023-05-14T10:26:08;21.02;;;4.95;;
38053;SDS011;23859;50.672;7.164;2023-05-14T10:28:35;33.08;;;5.97;;
38053;SDS011;23859;50.672;7.164;2023-05-14T10:31:01;3.90;;;3.15;;
38053;SDS011;23859;50.672;7.164;2023-05-14T10:33:27;4.00;;;3.65;;
38053;SDS011;23859;50.672;7.164;2023-05-14T10:35:59;13.07;;;3.50;;
38053;SDS011;23859;50.672;7.164;2023-05-14T10:38:28;4.53;;;3.40;;
38053;SDS011;23859;50.672;7.164;2023-05-14T10:41:00;4.88;;;3.13;;
38053;SDS011;23859;50.672;7.164;2023-05-14T10:43:38;20.25;;;3.58;;
38053;SDS011;23859;50.672;7.164;2023-05-14T10:46:06;3.90;;;3.42;;
38053;SDS011;23859;50.672;7.164;2023-05-14T10:48:33;3.90;;;3.35;;
38053;SDS011;23859;50.672;7.164;2023-05-14T10:51:00;7.13;;;3.63;;
38053;SDS011;23859;50.672;7.164;2023-05-14T10:53:34;3.50;;;3.20;;
38053;SDS011;23859;50.672;7.164;2023-05-14T10:56:05;64.18;;;6.85;;
38053;SDS011;23859;50.672;7.164;2023-05-14T10:58:41;5.00;;;3.40;;
38053;SDS011;23859;50.672;7.164;2023-05-14T11:01:09;6.20;;;3.47;;
38053;SDS011;23859;50.672;7.164;2023-05-14T11:03:37;3.75;;;3.15;;
38053;SDS011;23859;50.672;7.164;2023-05-14T11:06:06;5.20;;;3.17;;
38053;SDS011;23859;50.672;7.164;2023-05-14T11:08:33;6.00;;;3.30;;
38053;SDS011;23859;50.672;7.164;2023-05-14T11:11:00;4.30;;;3.25;;
38053;SDS011;23859;50.672;7.164;2023-05-14T11:13:26;3.35;;;2.92;;
38053;SDS011;23859;50.672;7.164;2023-05-14T11:15:53;18.40;;;3.08;;
38053;SDS011;23859;50.672;7.164;2023-05-14T11:18:26;3.33;;;3.03;;
38053;SDS011;23859;50.672;7.164;2023-05-14T11:20:57;5.63;;;3.05;;
38053;SDS011;23859;50.672;7.164;2023-05-14T11:23:23;3.45;;;2.90;;
38053;SDS011;23859;50.672;7.164;2023-05-14T11:25:50;3.90;;;2.83;;
38053;SDS011;23859;50.672;7.164;2023-05-14T11:28:20;3.20;;;2.90;;
38053;SDS011;23859;50.672;7.164;2023-05-14T11:30:50;3.17;;;2.88;;
38053;SDS011;23859;50.672;7.164;2023-05-14T11:33:17;3.35;;;2.67;;
38053;SDS011;23859;50.672;7.164;2023-05-14T11:35:44;2.72;;;2.53;;
38053;SDS011;23859;50.672;7.164;2023-05-14T11:38:17;3.88;;;3.05;;
38053;SDS011;23859;50.672;7.164;2023-05-14T11:40:54;7.07;;;3.80;;
38053;SDS011;23859;50.672;7.164;2023-05-14T11:43:21;4.15;;;3.00;;
38053;SDS011;23859;50.672;7.164;2023-05-14T11:45:48;3.28;;;2.90;;
38053;SDS011;23859;50.672;7.164;2023-05-14T11:48:16;3.55;;;3.25;;
38053;SDS011;23859;50.672;7.164;2023-05-14T11:50:49;4.57;;;3.17;;
38053;SDS011;23859;50.672;7.164;2023-05-14T11:53:21;6.78;;;3.80;;
38053;SDS011;23859;50.672;7.164;2023-05-14T11:55:51;5.05;;;3.70;;
38053;SDS011;23859;50.672;7.164;2023-05-14T11:58:18;3.85;;;3.45;;
38053;SDS011;23859;50.672;7.164;2023-05-14T12:00:45;7.40;;;3.50;;
38053;SDS011;23859;50.672;7.164;2023-05-14T12:03:14;3.97;;;3.67;;
38053;SDS011;23859;50.672;7.164;2023-05-14T12:06:00;49.83;;;7.22;;
38053;SDS011;23859;50.672;7.164;2023-05-14T12:08:31;4.13;;;3.38;;
38053;SDS011;23859;50.672;7.164;2023-05-14T12:10:58;3.88;;;3.45;;
38053;SDS011;23859;50.672;7.164;2023-05-14T12:13:25;6.47;;;3.40;;
38053;SDS011;23859;50.672;7.164;2023-05-14T12:15:53;5.35;;;4.25;;
38053;SDS011;23859;50.672;7.164;2023-05-14T12:18:21;4.43;;;3.70;;
38053;SDS011;23859;50.672;7.164;2023-05-14T12:20:51;4.72;;;3.55;;
38053;SDS011;23859;50.672;7.164;2023-05-14T12:23:28;3.88;;;3.17;;
38053;SDS011;23859;50.672;7.164;2023-05-14T12:25:54;4.15;;;3.75;;
38053;SDS011;23859;50.672;7.164;2023-05-14T12:28:30;7.97;;;3.95;;
38053;SDS011;23859;50.672;7.164;2023-05-14T12:30:57;5.28;;;3.78;;
38053;SDS011;23859;50.672;7.164;2023-05-14T12:33:24;11.95;;;4.15;;
38053;SDS011;23859;50.672;7.164;2023-05-14T12:35:51;4.55;;;3.95;;
38053;SDS011;23859;50.672;7.164;2023-05-14T12:38:18;4.80;;;4.15;;
38053;SDS011;23859;50.672;7.164;2023-05-14T12:40:44;6.68;;;3.97;;
38053;SDS011;23859;50.672;7.164;2023-05-14T12:43:11;6.88;;;3.92;;
38053;SDS011;23859;50.672;7.164;2023-05-14T12:45:37;5.95;;;4.28;;
38053;SDS011;23859;50.672;7.164;2023-05-14T12:48:03;7.55;;;4.32;;
38053;SDS011;23859;50.672;7.164;2023-05-14T12:50:30;5.20;;;3.80;;
38053;SDS011;23859;50.672;7.164;2023-05-14T12:52:56;6.90;;;4.40;;
38053;SDS011;23859;50.672;7.164;2023-05-14T12:55:22;4.32;;;3.92;;
38053;SDS011;23859;50.672;7.164;2023-05-14T12:57:48;4.30;;;3.60;;
38053;SDS011;23859;50.672;7.164;2023-05-14T13:00:14;5.95;;;4.40;;
38053;SDS011;23859;50.672;7.164;2023-05-14T13:02:41;5.00;;;4.03;;
38053;SDS011;23859;50.672;7.164;2023-05-14T13:05:07;7.38;;;4.65;;
38053;SDS011;23859;50.672;7.164;2023-05-14T13:07:33;6.68;;;4.30;;
38053;SDS011;23859;50.672;7.164;2023-05-14T13:10:00;6.57;;;3.50;;
38053;SDS011;23859;50.672;7.164;2023-05-14T13:12:26;5.43;;;3.83;;
38053;SDS011;23859;50.672;7.164;2023-05-14T13:14:53;5.18;;;4.20;;
38053;SDS011;23859;50.672;7.164;2023-05-14T13:17:19;7.82;;;4.80;;
38053;SDS011;23859;50.672;7.164;2023-05-14T13:19:45;6.45;;;4.07;;
38053;SDS011;23859;50.672;7.164;2023-05-14T13:22:11;6.65;;;4.45;;
38053;SDS011;23859;50.672;7.164;2023-05-14T13:24:38;6.65;;;4.57;;
38053;SDS011;23859;50.672;7.164;2023-05-14T13:27:04;6.93;;;4.18;;
38053;SDS011;23859;50.672;7.164;2023-05-14T13:29:30;7.35;;;4.07;;
38053;SDS011;23859;50.672;7.164;2023-05-14T13:31:56;6.10;;;4.15;;
38053;SDS011;23859;50.672;7.164;2023-05-14T13:34:22;4.90;;;4.05;;
38053;SDS011;23859;50.672;7.164;2023-05-14T13:36:48;5.10;;;3.80;;
38053;SDS011;23859;50.672;7.164;2023-05-14T13:39:14;5.50;;;4.60;;
38053;SDS011;23859;50.672;7.164;2023-05-14T13:41:40;5.47;;;3.83;;
38053;SDS011;23859;50.672;7.164;2023-05-14T13:44:06;5.35;;;3.95;;
38053;SDS011;23859;50.672;7.164;2023-05-14T13:46:32;6.05;;;4.25;;
38053;SDS011;23859;50.672;7.164;2023-05-14T13:48:58;7.70;;;3.80;;
38053;SDS011;23859;50.672;7.164;2023-05-14T13:51:24;7.05;;;4.65;;
38053;SDS011;23859;50.672;7.164;2023-05-14T13:53:51;6.50;;;4.13;;
38053;SDS011;23859;50.672;7.164;2023-05-14T13:56:17;8.05;;;4.22;;
38053;SDS011;23859;50.672;7.164;2023-05-14T13:58:43;4.88;;;3.75;;
38053;SDS011;23859;50.672;7.164;2023-05-14T14:01:09;5.82;;;4.65;;
38053;SDS011;23859;50.672;7.164;2023-05-14T14:03:35;5.75;;;3.63;;
38053;SDS011;23859;50.672;7.164;2023-05-14T14:06:01;4.95;;;3.65;;
38053;SDS011;23859;50.672;7.164;2023-05-14T14:08:27;7.03;;;3.78;;
38053;SDS011;23859;50.672;7.164;2023-05-14T14:10:55;5.88;;;3.80;;
38053;SDS011;23859;50.672;7.164;2023-05-14T14:13:21;4.97;;;4.13;;
38053;SDS011;23859;50.672;7.164;2023-05-14T14:15:47;6.32;;;4.18;;
38053;SDS011;23859;50.672;7.164;2023-05-14T14:18:13;6.78;;;3.95;;
38053;SDS011;23859;50.672;7.164;2023-05-14T14:20:39;4.25;;;3.85;;
38053;SDS011;23859;50.672;7.164;2023-05-14T14:23:06;4.88;;;4.15;;
38053;SDS011;23859;50.672;7.164;2023-05-14T14:25:32;7.22;;;3.90;;
38053;SDS011;23859;50.672;7.164;2023-05-14T14:27:58;7.13;;;4.10;;
38053;SDS011;23859;50.672;7.164;2023-05-14T14:30:24;6.47;;;4.10;;
38053;SDS011;23859;50.672;7.164;2023-05-14T14:32:50;5.72;;;4.38;;
38053;SDS011;23859;50.672;7.164;2023-05-14T14:35:16;4.05;;;3.67;;
38053;SDS011;23859;50.672;7.164;2023-05-14T14:37:43;6.55;;;4.32;;
38053;SDS011;23859;50.672;7.164;2023-05-14T14:40:13;7.53;;;3.72;;
38053;SDS011;23859;50.672;7.164;2023-05-14T14:42:40;6.38;;;4.47;;